CheckWX is a tool to help pilots better visualize weather data.  It is not intended as a substitute for an official pre-flight weather briefing.

01:29:49 UTC

DTMB METAR
Monastir Habib Bourguiba International Airport
Monastir, Tunisia
Current

30 mins ago

DTMB 240100Z 33025KT CAVOK 10/03 Q1017 NOSIG
Observed
Feb-24 @ 01:00 UTC
Wind
  • 330° at 25 KTS
Visibility
10,000+ meters
Flight Rules
VFR
Cloud Levels
  • Clear skies
Temperature
10°C / 50°F
Dewpoint
C / 37°F
Humidity
62%
Altimeter
30.03" Hg
Pressure
1016.92 hPa
Previous

60 mins ago

DTMB 240030Z 34026KT 9999 FEW037 10/02 Q1017 NOSIG
Observed
Feb-24 @ 00:30 UTC
Wind
  • 340° at 26 KTS
Visibility
10,000+ meters
Flight Rules
VFR
Cloud Levels
  • Few at 3,700' AGL
Temperature
10°C / 50°F
Dewpoint
C / 36°F
Humidity
58%
Altimeter
30.03" Hg
Pressure
1016.92 hPa
Previous

1 hour ago

DTMB 240000Z 34025G37KT 9999 FEW039 10/03 Q1018 NOSIG
Observed
Feb-24 @ 00:00 UTC
Wind
  • 340° at 25 KTS
  • Gusting to 37 KTS
Visibility
10,000+ meters
Flight Rules
VFR
Cloud Levels
  • Few at 3,900' AGL
Temperature
10°C / 50°F
Dewpoint
C / 37°F
Humidity
62%
Altimeter
30.06" Hg
Pressure
1017.92 hPa